M I D A S
Marine Information and Data Acquisition System
Tripno 1617 of the Zeeleeuw from 2008-11-27 08:04:50 to 2008-11-27 16:01:30
Back to CruiseResearch ActivitiesStationsMapUnderway DataData graphs

EquipmentUnitsComment
TimeDGPSUTC
LatitudeDGPSDM.mWGS84
LongitudeDGPSDM.mWGS84
HeadingGyrodeg 
SOGDGPSknotsSpeed over ground
COGDGPSdegCourse over ground
DepthEcho soundermeters200 kHz
Missing or incorrect values are displayed as -999
Navigation data collected by the RV Zeeleeuw from 2008-11-27 08:00:37 to 2008-11-27 16:17:23
                                                                                    Next 1000 lines
Time Latitude Longitude Heading SOG COG Depth
2008-11-27 08:00:47 51°13.624 2°56.049 124.4 0.1 67 7.3
2008-11-27 08:00:52 51°13.624 2°56.049 123.8 0.1 74 7.3
2008-11-27 08:00:57 51°13.624 2°56.049 123.2 0.1 214 7.2
2008-11-27 08:01:02 51°13.624 2°56.049 122.4 -999 219 7.3
2008-11-27 08:01:07 51°13.624 2°56.049 122 -999 205 5.4
2008-11-27 08:01:12 51°13.624 2°56.049 121.7 -999 21 7.3
2008-11-27 08:01:17 51°13.624 2°56.049 121.6 -999 342 -999
2008-11-27 08:01:22 51°13.624 2°56.049 121.4 -999 3 7.4
2008-11-27 08:01:27 51°13.624 2°56.049 121.3 -999 297 7.4
2008-11-27 08:01:32 51°13.624 2°56.049 121.5 -999 234 7.4
2008-11-27 08:01:37 51°13.624 2°56.049 121.9 -999 169 7.4
2008-11-27 08:01:42 51°13.624 2°56.049 122.5 -999 289 5.5
2008-11-27 08:01:47 51°13.624 2°56.049 123 -999 269 7.4
2008-11-27 08:01:52 51°13.624 2°56.049 123.2 -999 240 7.3
2008-11-27 08:01:57 51°13.624 2°56.049 123.3 -999 58 7.3
2008-11-27 08:02:01 51°13.624 2°56.049 123.3 -999 97 7.3
2008-11-27 08:02:07 51°13.624 2°56.049 123.3 -999 28 5.4
2008-11-27 08:02:12 51°13.624 2°56.049 123 -999 171 7.3
2008-11-27 08:02:17 51°13.624 2°56.049 122.7 0.1 174 5.4
2008-11-27 08:02:22 51°13.624 2°56.049 122.2 -999 121 7.3
2008-11-27 08:02:27 51°13.624 2°56.049 121.6 -999 211 7.3
2008-11-27 08:02:32 51°13.624 2°56.049 121 0.1 198 7.3
2008-11-27 08:02:37 51°13.624 2°56.049 120.4 0.1 206 7.3
2008-11-27 08:02:42 51°13.624 2°56.049 120 0.1 199 7.3
2008-11-27 08:02:47 51°13.624 2°56.049 119.4 0.1 180 7.4
2008-11-27 08:02:52 51°13.623 2°56.049 118.8 0.1 194 5.5
2008-11-27 08:02:57 51°13.623 2°56.049 118.1 0.1 196 7.4
2008-11-27 08:03:02 51°13.623 2°56.049 117 0.1 191 5.5
2008-11-27 08:03:07 51°13.623 2°56.049 115.8 0.1 198 7.3
2008-11-27 08:03:12 51°13.623 2°56.049 114.4 0.1 200 5.5
2008-11-27 08:03:17 51°13.623 2°56.049 113.1 0.1 306 7.4
2008-11-27 08:03:22 51°13.623 2°56.048 111.9 0.1 264 7.3
2008-11-27 08:03:27 51°13.623 2°56.048 111.1 0.3 302 7.3
2008-11-27 08:03:32 51°13.623 2°56.047 110.8 0.7 296 7.3
2008-11-27 08:03:37 51°13.624 2°56.045 110.5 1.1 300 7.3
2008-11-27 08:03:42 51°13.625 2°56.042 110.3 1.6 297 7.2
2008-11-27 08:03:47 51°13.626 2°56.037 110.3 2.1 298 7.1
2008-11-27 08:03:52 51°13.628 2°56.033 110.3 2.5 296 7.4
2008-11-27 08:03:57 51°13.63 2°56.027 110.4 2.7 298 -999
2008-11-27 08:04:02 51°13.632 2°56.022 110.5 3 296 -999
2008-11-27 08:04:07 51°13.634 2°56.015 110.7 3.2 297 -999
2008-11-27 08:04:12 51°13.636 2°56.009 110.8 3.4 295 -999
2008-11-27 08:04:17 51°13.638 2°56.002 111 3.5 296 -999
2008-11-27 08:04:22 51°13.64 2°55.995 111 3.6 294 -999
2008-11-27 08:04:27 51°13.642 2°55.987 111 3.7 295 -999
2008-11-27 08:04:32 51°13.644 2°55.979 111 3.8 294 -999
2008-11-27 08:04:37 51°13.646 2°55.971 111 3.9 294 -999
2008-11-27 08:04:42 51°13.648 2°55.963 111.3 4 294 -999
2008-11-27 08:04:47 51°13.651 2°55.955 111.8 4.1 294 -999
2008-11-27 08:04:52 51°13.653 2°55.946 112.6 4.3 294 -999
2008-11-27 08:04:57 51°13.656 2°55.937 113.1 4.4 295 -999
2008-11-27 08:05:02 51°13.659 2°55.928 114.1 4.5 296 -999
2008-11-27 08:05:07 51°13.662 2°55.919 115.3 4.6 298 -999
2008-11-27 08:05:12 51°13.665 2°55.91 116.6 4.7 300 -999
2008-11-27 08:05:17 51°13.668 2°55.902 118.2 4.6 301 -999
2008-11-27 08:05:22 51°13.671 2°55.893 119.4 4.6 301 -999
2008-11-27 08:05:27 51°13.675 2°55.884 120.2 4.6 300 -999
2008-11-27 08:05:32 51°13.678 2°55.875 120.3 4.6 299 9.2
2008-11-27 08:05:37 51°13.681 2°55.866 120 4.6 299 -999
2008-11-27 08:05:42 51°13.684 2°55.857 119.2 4.5 298 -999
2008-11-27 08:05:47 51°13.687 2°55.849 118.2 4.5 297 -999
2008-11-27 08:05:52 51°13.69 2°55.84 117.2 4.5 297 -999
2008-11-27 08:05:57 51°13.692 2°55.831 116.4 4.4 297 -999
2008-11-27 08:06:02 51°13.695 2°55.823 115.9 4.3 297 -999
2008-11-27 08:06:07 51°13.698 2°55.814 115.5 4.2 296 -999
2008-11-27 08:06:12 51°13.7 2°55.806 115.3 4 297 -999
2008-11-27 08:06:17 51°13.702 2°55.799 115.3 3.8 298 -999
2008-11-27 08:06:22 51°13.705 2°55.792 116.1 3.5 299 -999
2008-11-27 08:06:27 51°13.707 2°55.786 117.5 2.9 300 -999
2008-11-27 08:06:32 51°13.709 2°55.782 118.3 2.1 299 -999
2008-11-27 08:06:37 51°13.71 2°55.779 117.6 1.5 306 12.2
2008-11-27 08:06:41 51°13.71 2°55.778 115.3 0.7 296 12.2
2008-11-27 08:06:46 51°13.711 2°55.777 110.6 0.8 313 12.1
2008-11-27 08:06:51 51°13.711 2°55.775 106.2 0.9 287 12.1
2008-11-27 08:06:56 51°13.712 2°55.773 102.4 1.3 290 12
2008-11-27 08:07:01 51°13.712 2°55.769 99.8 1.5 283 12
2008-11-27 08:07:05 51°13.713 2°55.766 97.6 1.8 281 12.3
2008-11-27 08:07:10 51°13.713 2°55.762 95.7 2.1 281 13.1
2008-11-27 08:07:15 51°13.714 2°55.757 94.3 2.3 279 12.9
2008-11-27 08:07:20 51°13.714 2°55.752 92.3 2.4 278 -999
2008-11-27 08:07:25 51°13.715 2°55.746 89.7 2.5 276 -999
2008-11-27 08:07:31 51°13.715 2°55.74 86.6 2.4 274 -999
2008-11-27 08:07:36 51°13.715 2°55.734 84.1 2.4 273 12.4
2008-11-27 08:07:41 51°13.715 2°55.729 82.4 2.3 273 12.5
2008-11-27 08:07:45 51°13.715 2°55.726 80.5 2.1 270 12.3
2008-11-27 08:07:50 51°13.715 2°55.721 78.5 1.9 271 12
2008-11-27 08:07:56 51°13.715 2°55.717 76.8 1.4 272 11.4
2008-11-27 08:08:00 51°13.715 2°55.716 75.1 0.6 285 11.2
2008-11-27 08:08:05 51°13.715 2°55.716 72 0.3 308 11.3
2008-11-27 08:08:09 51°13.716 2°55.715 66.7 0.3 315 11.1
2008-11-27 08:08:15 51°13.716 2°55.715 61.6 0.3 297 11.2
2008-11-27 08:08:19 51°13.716 2°55.714 58 0.4 270 11.2
2008-11-27 08:08:24 51°13.716 2°55.713 55.1 0.7 253 11.1
2008-11-27 08:08:29 51°13.715 2°55.711 52.6 0.9 247 10.9
2008-11-27 08:08:33 51°13.714 2°55.709 50.3 1.3 239 11
2008-11-27 08:08:39 51°13.713 2°55.706 48.2 1.3 239 11
2008-11-27 08:08:44 51°13.712 2°55.704 46.4 1.2 236 10.7
2008-11-27 08:08:49 51°13.712 2°55.702 45.1 0.8 254 10.9
2008-11-27 08:08:53 51°13.712 2°55.702 43.8 0.3 7 10.8
2008-11-27 08:08:59 51°13.714 2°55.702 40.1 1.1 14 10.7
2008-11-27 08:09:04 51°13.716 2°55.704 33.6 1.7 21 11.1
2008-11-27 08:09:09 51°13.719 2°55.705 25.8 2.3 12 11.1
2008-11-27 08:09:13 51°13.723 2°55.705 17.1 2.8 6 11.6
2008-11-27 08:09:18 51°13.727 2°55.705 8.2 3.3 358 11.6
2008-11-27 08:09:24 51°13.733 2°55.704 358.8 3.9 351 11.6
2008-11-27 08:09:29 51°13.739 2°55.701 350.1 4.4 345 11.7
2008-11-27 08:09:33 51°13.745 2°55.698 344.1 5.1 342 11.6
2008-11-27 08:09:38 51°13.752 2°55.694 341.1 5.7 341 10.9
2008-11-27 08:09:44 51°13.762 2°55.688 339.2 6.3 339 10.6
2008-11-27 08:09:49 51°13.771 2°55.683 337.4 6.8 338 10.6
2008-11-27 08:09:53 51°13.778 2°55.678 336.2 7.2 336 10.6
2008-11-27 08:09:58 51°13.787 2°55.671 335.9 7.6 337 10.5
2008-11-27 08:10:04 51°13.799 2°55.662 336.1 7.9 336 10.5
2008-11-27 08:10:09 51°13.81 2°55.655 335 8.2 335 10.6
2008-11-27 08:10:13 51°13.818 2°55.649 334.9 8.4 336 10.6
2008-11-27 08:10:18 51°13.829 2°55.641 335.6 8.6 336 10.6
2008-11-27 08:10:24 51°13.842 2°55.631 335.1 8.7 335 10.6
2008-11-27 08:10:28 51°13.851 2°55.624 335 8.9 336 10.4
2008-11-27 08:10:33 51°13.862 2°55.615 335.2 9 335 10.3
2008-11-27 08:10:39 51°13.876 2°55.605 334.5 9.1 334 10.4
2008-11-27 08:10:44 51°13.888 2°55.596 333.8 9.1 334 10.4
2008-11-27 08:10:48 51°13.897 2°55.59 333.6 9 335 10.5
2008-11-27 08:10:53 51°13.908 2°55.581 333.8 8.9 335 10.5
2008-11-27 08:10:59 51°13.921 2°55.571 334.1 8.8 334 10.5
2008-11-27 08:11:04 51°13.932 2°55.563 333.8 8.7 334 10.6
2008-11-27 08:11:08 51°13.94 2°55.556 333.4 8.6 333 10.7
2008-11-27 08:11:13 51°13.951 2°55.548 333.6 8.5 334 10.7
2008-11-27 08:11:18 51°13.961 2°55.54 333.8 8.4 334 10.7
2008-11-27 08:11:24 51°13.974 2°55.531 333.9 8.4 335 10.7
2008-11-27 08:11:29 51°13.985 2°55.523 334.1 8.4 335 10.6
2008-11-27 08:11:33 51°13.993 2°55.516 333.9 8.3 334 10.6
2008-11-27 08:11:38 51°14.003 2°55.508 332.6 8.2 333 10.6
2008-11-27 08:11:44 51°14.015 2°55.499 332.3 8 334 10.3
2008-11-27 08:11:49 51°14.025 2°55.491 332.3 7.9 333 10.6
2008-11-27 08:11:53 51°14.033 2°55.484 332 7.7 333 10.6
2008-11-27 08:11:58 51°14.042 2°55.476 331.7 7.6 332 10.8
2008-11-27 08:12:04 51°14.053 2°55.467 331.8 7.5 332 10.6
2008-11-27 08:12:09 51°14.062 2°55.459 331.8 7.4 332 10.7
2008-11-27 08:12:13 51°14.069 2°55.453 331.8 7.3 333 10.6
2008-11-27 08:12:18 51°14.078 2°55.446 331.8 7.2 333 10.4
2008-11-27 08:12:24 51°14.089 2°55.437 331.6 7.2 332 10.7
2008-11-27 08:12:28 51°14.096 2°55.431 331.2 7.1 332 10.4
2008-11-27 08:12:33 51°14.105 2°55.423 330.8 7.1 332 10
2008-11-27 08:12:38 51°14.113 2°55.416 330.8 7 331 10.2
2008-11-27 08:12:44 51°14.123 2°55.407 330.7 7 332 -999
2008-11-27 08:12:49 51°14.131 2°55.399 330.9 7 331 11
2008-11-27 08:12:54 51°14.14 2°55.392 330.8 6.9 331 10.8
2008-11-27 08:12:59 51°14.148 2°55.384 330.1 6.9 330 10.8
2008-11-27 08:13:04 51°14.156 2°55.377 329.2 6.9 329 10.8
2008-11-27 08:13:09 51°14.165 2°55.369 328.6 6.9 329 10.8
2008-11-27 08:13:13 51°14.171 2°55.363 328.4 6.9 329 10.9
2008-11-27 08:13:19 51°14.181 2°55.353 327.8 6.9 327 10.8
2008-11-27 08:13:24 51°14.189 2°55.345 326.2 7.1 326 11.3
2008-11-27 08:13:28 51°14.196 2°55.337 324.7 7.4 324 10.9
2008-11-27 08:13:33 51°14.205 2°55.327 323.8 7.7 324 11.3
2008-11-27 08:13:38 51°14.213 2°55.316 322.8 8 322 11.1
2008-11-27 08:13:44 51°14.224 2°55.302 320.9 8.3 320 10.9
2008-11-27 08:13:48 51°14.231 2°55.292 319.3 8.5 318 11.1
2008-11-27 08:13:53 51°14.24 2°55.28 318.4 8.8 318 11
2008-11-27 08:13:58 51°14.249 2°55.266 316.7 9.1 316 10.9
2008-11-27 08:14:04 51°14.26 2°55.248 314.4 9.3 314 10.9
2008-11-27 08:14:08 51°14.267 2°55.236 313.6 9.6 315 10.6
2008-11-27 08:14:13 51°14.276 2°55.22 312.4 9.8 312 10.4
2008-11-27 08:14:18 51°14.285 2°55.204 311.2 10 313 10.5
2008-11-27 08:14:23 51°14.295 2°55.187 311.3 10.1 312 10.6
2008-11-27 08:14:29 51°14.306 2°55.167 311.2 10.2 312 10.3
2008-11-27 08:14:33 51°14.314 2°55.154 310.9 10.3 311 10.4
2008-11-27 08:14:39 51°14.325 2°55.133 310.5 10.4 312 10.6
2008-11-27 08:14:44 51°14.336 2°55.116 311.3 10.4 313 -999
2008-11-27 08:14:49 51°14.345 2°55.099 311.7 10.5 312 10.8
2008-11-27 08:14:53 51°14.352 2°55.084 310.2 10.5 311 -999
2008-11-27 08:14:59 51°14.364 2°55.063 309.2 10.6 311 10.7
2008-11-27 08:15:04 51°14.374 2°55.046 309.8 10.6 312 10.6
2008-11-27 08:15:08 51°14.382 2°55.032 311.3 10.8 314 10.5
2008-11-27 08:15:13 51°14.392 2°55.014 311.5 11 312 10.4
2008-11-27 08:15:19 51°14.406 2°54.994 312.7 11 315 10.4
2008-11-27 08:15:24 51°14.416 2°54.976 313.9 11.1 314 10.4
2008-11-27 08:15:28 51°14.425 2°54.962 314.3 11.1 315 10.3
2008-11-27 08:15:33 51°14.436 2°54.945 316.3 11.2 317 10.3
2008-11-27 08:15:39 51°14.451 2°54.925 319.3 11.3 320 10.5
2008-11-27 08:15:44 51°14.463 2°54.909 321.3 11.4 320 10.6
2008-11-27 08:15:48 51°14.473 2°54.897 322.5 11.4 322 10.4
2008-11-27 08:15:53 51°14.486 2°54.882 324 11.5 323 10.1
2008-11-27 08:15:58 51°14.499 2°54.867 325.9 11.5 325 9.9
2008-11-27 08:16:04 51°14.514 2°54.849 326.9 11.7 324 10
2008-11-27 08:16:08 51°14.525 2°54.836 325.6 11.8 322 9.9
2008-11-27 08:16:13 51°14.538 2°54.82 325.1 11.9 323 9.7
2008-11-27 08:16:18 51°14.551 2°54.805 325.8 12 324 9.8
2008-11-27 08:16:24 51°14.567 2°54.787 326.1 12.1 324 9.6
2008-11-27 08:16:29 51°14.581 2°54.771 326.6 12.1 324 9.6
2008-11-27 08:16:33 51°14.592 2°54.758 326.4 12.1 323 9.5
2008-11-27 08:16:38 51°14.605 2°54.742 325.8 12.2 323 9.5
2008-11-27 08:16:44 51°14.621 2°54.722 325.1 12.2 322 9.6
2008-11-27 08:16:49 51°14.634 2°54.706 324.6 12.2 322 9.5
2008-11-27 08:16:53 51°14.645 2°54.693 324.3 12.2 322 9.5
2008-11-27 08:16:58 51°14.659 2°54.676 324 12.2 322 9.5
2008-11-27 08:17:03 51°14.672 2°54.659 323.9 12.3 322 9.6
2008-11-27 08:17:08 51°14.686 2°54.642 323.9 12.3 322 9.4
2008-11-27 08:17:13 51°14.699 2°54.625 324.1 12.2 321 9.4
2008-11-27 08:17:19 51°14.715 2°54.605 323.6 12.2 320 9.5
2008-11-27 08:17:24 51°14.728 2°54.587 323 12.3 320 9.6
2008-11-27 08:17:28 51°14.739 2°54.573 323 12.2 320 9.5
2008-11-27 08:17:33 51°14.751 2°54.556 322.9 12.2 320 9.5
2008-11-27 08:17:39 51°14.767 2°54.535 322.8 12.3 320 9.5
2008-11-27 08:17:44 51°14.78 2°54.517 322.5 12.3 319 9.5
2008-11-27 08:17:48 51°14.79 2°54.503 322.2 12.3 320 9.6
2008-11-27 08:17:53 51°14.803 2°54.486 322.1 12.2 320 9.7
2008-11-27 08:17:59 51°14.819 2°54.465 322.1 12.2 320 9.4
2008-11-27 08:18:04 51°14.832 2°54.447 322.2 12.2 320 9.5
2008-11-27 08:18:08 51°14.842 2°54.433 322.5 12.2 320 9.5
2008-11-27 08:18:13 51°14.855 2°54.416 322.9 12.2 320 9.4
2008-11-27 08:18:18 51°14.868 2°54.399 322.8 12.2 320 9.2
2008-11-27 08:18:24 51°14.884 2°54.378 322.9 12.2 319 9.2
2008-11-27 08:18:28 51°14.894 2°54.363 322.6 12.2 319 8.9
2008-11-27 08:18:33 51°14.907 2°54.346 322.3 12.1 319 8.7
2008-11-27 08:18:39 51°14.922 2°54.325 322.4 12.1 319 8.7
2008-11-27 08:18:43 51°14.932 2°54.311 322.4 12 320 8.6
2008-11-27 08:18:49 51°14.947 2°54.291 322.9 12 320 8.5
2008-11-27 08:18:53 51°14.957 2°54.277 323 12 319 8.5
2008-11-27 08:18:59 51°14.972 2°54.256 322.4 12.1 318 8.5
2008-11-27 08:19:03 51°14.983 2°54.242 321.6 12 319 8.4
2008-11-27 08:19:08 51°14.995 2°54.224 321.6 12 318 8.4
2008-11-27 08:19:13 51°15.008 2°54.206 321.9 12 319 8.3
2008-11-27 08:19:19 51°15.023 2°54.184 322.1 12 317 8.3
2008-11-27 08:19:25 51°15.038 2°54.163 321.3 12 317 8.4
2008-11-27 08:19:29 51°15.047 2°54.149 321 12 318 8.4
2008-11-27 08:19:33 51°15.057 2°54.135 321.2 12.1 318 8.5
2008-11-27 08:19:38 51°15.07 2°54.117 321.8 12.1 318 8.7
2008-11-27 08:19:43 51°15.082 2°54.099 322 12.1 318 8.7
2008-11-27 08:19:49 51°15.097 2°54.078 322.3 12.1 318 8.7
2008-11-27 08:19:53 51°15.108 2°54.063 322.4 12.1 319 8.8
2008-11-27 08:19:59 51°15.123 2°54.042 322.7 12.1 319 8.9
2008-11-27 08:20:03 51°15.133 2°54.029 323.7 12.1 321 8.9
2008-11-27 08:20:09 51°15.149 2°54.009 324.4 12.1 320 9
2008-11-27 08:20:13 51°15.159 2°53.995 323.7 12.1 319 9
2008-11-27 08:20:17 51°15.169 2°53.981 323.2 12.1 319 9
2008-11-27 08:20:23 51°15.184 2°53.96 323.1 12.1 319 9.1
2008-11-27 08:20:29 51°15.199 2°53.94 323.2 12 320 9.1
2008-11-27 08:20:33 51°15.21 2°53.926 323.6 12.1 319 9.1
2008-11-27 08:20:38 51°15.223 2°53.909 323.9 12.1 320 9.2
2008-11-27 08:20:44 51°15.238 2°53.888 324.1 12.1 320 9.3
2008-11-27 08:20:49 51°15.251 2°53.871 323.9 12.1 320 9.2
2008-11-27 08:20:53 51°15.261 2°53.857 323.9 12.1 320 9.3
2008-11-27 08:20:59 51°15.277 2°53.837 324.1 12.1 321 9.3
2008-11-27 08:21:03 51°15.287 2°53.823 324.4 12.1 320 9.5
2008-11-27 08:21:09 51°15.302 2°53.803 324.3 12.1 321 9.5
2008-11-27 08:21:13 51°15.313 2°53.789 324.5 12.1 320 9.5
2008-11-27 08:21:19 51°15.328 2°53.769 324.3 12.1 320 9.6
2008-11-27 08:21:23 51°15.339 2°53.756 324.3 12.1 322 9.6
2008-11-27 08:21:29 51°15.354 2°53.736 325.1 12.1 321 9.8
2008-11-27 08:21:33 51°15.365 2°53.723 325.8 12.1 322 9.8
2008-11-27 08:21:39 51°15.381 2°53.703 326.7 12.1 323 9.9
2008-11-27 08:21:44 51°15.394 2°53.687 326.5 12 322 9.8
2008-11-27 08:21:49 51°15.407 2°53.671 326.1 12 323 10
2008-11-27 08:21:53 51°15.417 2°53.658 326 12 322 10
2008-11-27 08:21:59 51°15.433 2°53.638 325.6 12 321 10.2
2008-11-27 08:22:04 51°15.446 2°53.621 324.6 12 320 10.2
2008-11-27 08:22:09 51°15.459 2°53.604 324.3 12 320 10.3
2008-11-27 08:22:13 51°15.469 2°53.591 324.3 12 321 10.2
2008-11-27 08:22:19 51°15.485 2°53.571 325.1 12 321 10.1
2008-11-27 08:22:24 51°15.498 2°53.555 325.4 12 322 10.3
2008-11-27 08:22:29 51°15.511 2°53.539 325.7 12 322 10.1
2008-11-27 08:22:33 51°15.521 2°53.526 325.8 11.9 322 10.5
2008-11-27 08:22:39 51°15.537 2°53.507 327.1 11.9 323 10.2
2008-11-27 08:22:43 51°15.548 2°53.494 327.3 12 324 10.6
2008-11-27 08:22:49 51°15.564 2°53.476 328.2 11.9 324 10.7
2008-11-27 08:22:53 51°15.575 2°53.464 328.7 11.9 325 10.7
2008-11-27 08:22:58 51°15.588 2°53.448 328.8 12 324 10.7
2008-11-27 08:23:04 51°15.605 2°53.43 329.3 12 326 11
2008-11-27 08:23:09 51°15.618 2°53.415 329.9 12.1 326 10.8
2008-11-27 08:23:14 51°15.633 2°53.401 330.4 12 327 10.6
2008-11-27 08:23:19 51°15.646 2°53.386 331 12.1 326 10.7
2008-11-27 08:23:23 51°15.657 2°53.375 331.6 12 328 10.7
2008-11-27 08:23:29 51°15.674 2°53.357 332 12 327 10.9
2008-11-27 08:23:33 51°15.686 2°53.346 332.3 12 329 10.8
2008-11-27 08:23:39 51°15.703 2°53.33 332.6 12 328 10.7
2008-11-27 08:23:43 51°15.714 2°53.318 332.2 12 329 10.9
2008-11-27 08:23:49 51°15.731 2°53.302 332.3 12.1 328 11.1
2008-11-27 08:23:53 51°15.742 2°53.291 332.3 12.1 329 11.2
2008-11-27 08:23:59 51°15.76 2°53.274 332.5 12.1 329 11.1
2008-11-27 08:24:03 51°15.771 2°53.262 332.1 12.1 328 10.9
2008-11-27 08:24:09 51°15.788 2°53.245 331.9 12.1 328 11.2
2008-11-27 08:24:13 51°15.8 2°53.234 332.2 12.1 329 11.3
2008-11-27 08:24:17 51°15.811 2°53.223 331.9 12.1 327 11.1
2008-11-27 08:24:23 51°15.828 2°53.206 331.7 12.1 329 11.3
2008-11-27 08:24:29 51°15.845 2°53.188 331.2 12.1 327 11.3
2008-11-27 08:24:33 51°15.856 2°53.177 331.6 12.1 329 11.3
2008-11-27 08:24:39 51°15.873 2°53.16 331.1 12.1 327 11.3
2008-11-27 08:24:43 51°15.885 2°53.148 331 12 328 11.3
2008-11-27 08:24:49 51°15.902 2°53.132 331.5 12.1 327 11.4
2008-11-27 08:24:53 51°15.913 2°53.12 330.9 12 329 11.4
2008-11-27 08:24:58 51°15.927 2°53.106 331.4 12.1 328 11.4
2008-11-27 08:25:04 51°15.945 2°53.09 331.5 12.1 329 11.5
2008-11-27 08:25:09 51°15.959 2°53.075 331.7 12.1 327 11.6
2008-11-27 08:25:13 51°15.97 2°53.064 331.3 12.1 328 11.5
2008-11-27 08:25:19 51°15.987 2°53.047 331.6 12.1 328 11.6
2008-11-27 08:25:24 51°16.002 2°53.033 331.7 12.1 328 11.7
2008-11-27 08:25:29 51°16.016 2°53.019 331.6 12.2 329 11.6
2008-11-27 08:25:34 51°16.03 2°53.005 331.6 12.2 329 11.7
2008-11-27 08:25:39 51°16.044 2°52.991 330.9 12.1 328 11.7
2008-11-27 08:25:44 51°16.059 2°52.977 331.2 12.1 329 11.7
2008-11-27 08:25:49 51°16.073 2°52.963 331.3 12.1 328 11.8
2008-11-27 08:25:53 51°16.084 2°52.952 331.1 12.1 328 11.8
2008-11-27 08:25:59 51°16.101 2°52.936 331.6 12.1 329 11.8
2008-11-27 08:26:04 51°16.116 2°52.922 331.7 12.1 328 11.8
2008-11-27 08:26:09 51°16.13 2°52.908 331.7 12.1 329 12
2008-11-27 08:26:13 51°16.142 2°52.896 331.7 12.1 329 11.7
2008-11-27 08:26:19 51°16.159 2°52.88 331.4 12.1 329 11.8
2008-11-27 08:26:24 51°16.173 2°52.866 331.3 12 328 11.8
2008-11-27 08:26:29 51°16.187 2°52.852 331.2 12 328 11.7
2008-11-27 08:26:34 51°16.202 2°52.838 331.3 12.1 329 12
2008-11-27 08:26:39 51°16.216 2°52.824 330.8 12 328 11.7
2008-11-27 08:26:44 51°16.23 2°52.81 330.7 12 327 11.9
2008-11-27 08:26:49 51°16.244 2°52.795 330 12.1 327 11.9
2008-11-27 08:26:53 51°16.255 2°52.783 329.4 12 327 12
2008-11-27 08:26:58 51°16.269 2°52.769 329.8 12 328 12
2008-11-27 08:27:04 51°16.286 2°52.752 330.3 11.9 328 11.8
2008-11-27 08:27:09 51°16.3 2°52.738 330.5 12 328 11.9
2008-11-27 08:27:14 51°16.314 2°52.724 330.5 12 328 11.9
2008-11-27 08:27:19 51°16.328 2°52.711 330.9 12 329 11.9
2008-11-27 08:27:24 51°16.342 2°52.697 331 12 328 11.8
2008-11-27 08:27:29 51°16.356 2°52.683 330.7 12 327 12
2008-11-27 08:27:34 51°16.37 2°52.668 329.7 12 327 11.9
2008-11-27 08:27:39 51°16.384 2°52.654 330.1 12 327 11.9
2008-11-27 08:27:44 51°16.398 2°52.64 330.5 11.9 328 12
2008-11-27 08:27:50 51°16.415 2°52.624 330.9 12 329 11.9
2008-11-27 08:27:53 51°16.423 2°52.615 330.9 11.9 327 11.7
2008-11-27 08:27:59 51°16.44 2°52.599 330.8 11.9 328 11.6
2008-11-27 08:28:03 51°16.452 2°52.587 330.9 11.9 328 11.7
2008-11-27 08:28:09 51°16.469 2°52.571 331 11.9 327 11.7
2008-11-27 08:28:14 51°16.482 2°52.556 330.8 11.9 328 11.8
2008-11-27 08:28:17 51°16.491 2°52.548 330.7 11.8 327 11.9
2008-11-27 08:28:24 51°16.51 2°52.528 330.2 11.8 327 11.7
2008-11-27 08:28:29 51°16.524 2°52.514 330.5 11.7 327 11.5
2008-11-27 08:28:33 51°16.534 2°52.503 329.9 11.7 326 11.5
2008-11-27 08:28:39 51°16.551 2°52.485 330.1 11.7 327 11.3
2008-11-27 08:28:44 51°16.564 2°52.472 330.3 11.7 328 11.1
2008-11-27 08:28:49 51°16.578 2°52.458 331.1 11.8 328 10.8
2008-11-27 08:28:54 51°16.592 2°52.444 330.4 11.7 327 11.3
2008-11-27 08:28:59 51°16.606 2°52.43 330.9 11.7 329 11
2008-11-27 08:29:04 51°16.62 2°52.416 330.9 11.7 327 10.7
2008-11-27 08:29:09 51°16.633 2°52.402 330.7 11.7 327 10.6
2008-11-27 08:29:13 51°16.644 2°52.39 330.2 11.7 326 10.5
2008-11-27 08:29:19 51°16.661 2°52.374 330.7 11.6 327 10.5
2008-11-27 08:29:24 51°16.674 2°52.359 330.6 11.6 326 10.2
2008-11-27 08:29:29 51°16.688 2°52.346 330.9 11.6 328 10
2008-11-27 08:29:33 51°16.698 2°52.334 330.2 11.6 326 10
2008-11-27 08:29:39 51°16.714 2°52.317 329.5 11.6 325 10.1
2008-11-27 08:29:45 51°16.73 2°52.3 328.8 11.5 327 9.7
2008-11-27 08:29:49 51°16.741 2°52.289 329.7 11.4 327 9.7
2008-11-27 08:29:53 51°16.751 2°52.278 329.8 11.4 325 9.4
2008-11-27 08:29:59 51°16.767 2°52.26 328.9 11.5 325 9.5
2008-11-27 08:30:03 51°16.777 2°52.248 329.2 11.5 326 9.5
2008-11-27 08:30:09 51°16.793 2°52.231 329.5 11.6 326 9.7
2008-11-27 08:30:13 51°16.803 2°52.22 329.7 11.5 326 9.7
2008-11-27 08:30:19 51°16.819 2°52.203 330.1 11.5 326 9.7
2008-11-27 08:30:24 51°16.833 2°52.189 330.6 11.4 327 9.7
2008-11-27 08:30:29 51°16.846 2°52.175 330.6 11.5 326 10
2008-11-27 08:30:34 51°16.859 2°52.16 329.7 11.6 325 10.3
2008-11-27 08:30:39 51°16.872 2°52.145 329.1 11.5 325 10.1
2008-11-27 08:30:44 51°16.886 2°52.131 329.6 11.6 326 10.3
2008-11-27 08:30:49 51°16.899 2°52.116 329.4 11.6 325 10.1
2008-11-27 08:30:53 51°16.909 2°52.105 329.8 11.6 326 10
2008-11-27 08:30:59 51°16.925 2°52.088 330.6 11.6 327 10.3
2008-11-27 08:31:04 51°16.939 2°52.074 330.6 11.6 325 10.3
2008-11-27 08:31:09 51°16.952 2°52.059 330.2 11.6 325 10.4
2008-11-27 08:31:13 51°16.963 2°52.047 329.6 11.6 325 10.4
2008-11-27 08:31:19 51°16.979 2°52.029 329.5 11.5 325 10.4
2008-11-27 08:31:24 51°16.992 2°52.015 329.8 11.6 325 10.3
2008-11-27 08:31:29 51°17.006 2°52.001 330.2 11.6 326 10.4
2008-11-27 08:31:33 51°17.017 2°51.989 330.9 11.7 327 10.5
2008-11-27 08:31:39 51°17.032 2°51.972 330.3 11.6 325 10.4
2008-11-27 08:31:44 51°17.046 2°51.957 329.9 11.5 326 10.6
2008-11-27 08:31:50 51°17.062 2°51.94 329.8 11.6 326 10.6
2008-11-27 08:31:54 51°17.072 2°51.927 330 11.6 324 10.6
2008-11-27 08:31:59 51°17.086 2°51.913 329.5 11.6 325 10.6
2008-11-27 08:32:04 51°17.099 2°51.898 329.5 11.7 327 11
2008-11-27 08:32:09 51°17.113 2°51.884 330.3 11.7 327 10.7
2008-11-27 08:32:14 51°17.126 2°51.87 330.4 11.7 325 10.8
2008-11-27 08:32:19 51°17.139 2°51.856 330.9 11.6 326 11
2008-11-27 08:32:24 51°17.153 2°51.841 330.1 11.7 325 10.8
2008-11-27 08:32:29 51°17.166 2°51.827 330.9 11.6 327 11
2008-11-27 08:32:34 51°17.179 2°51.812 330.4 11.7 325 11
2008-11-27 08:32:39 51°17.193 2°51.798 329.6 11.6 325 10.9
2008-11-27 08:32:44 51°17.206 2°51.782 329.4 11.6 324 10.9
2008-11-27 08:32:49 51°17.219 2°51.767 328.9 11.7 324 10.9
2008-11-27 08:32:54 51°17.232 2°51.752 328.7 11.7 324 11.1
2008-11-27 08:32:59 51°17.245 2°51.737 328.5 11.7 325 10.9
2008-11-27 08:33:04 51°17.259 2°51.722 329.3 11.7 326 11
2008-11-27 08:33:09 51°17.272 2°51.707 330 11.7 325 10.9
2008-11-27 08:33:14 51°17.285 2°51.692 329.2 11.7 324 10.9
2008-11-27 08:33:19 51°17.298 2°51.677 329 11.7 324 11
2008-11-27 08:33:24 51°17.311 2°51.662 328.8 11.7 325 11
2008-11-27 08:33:29 51°17.325 2°51.648 329.9 11.7 326 10.9
2008-11-27 08:33:33 51°17.335 2°51.636 330.2 11.6 327 11.1
2008-11-27 08:33:39 51°17.352 2°51.62 330.9 11.5 327 10.8
2008-11-27 08:33:44 51°17.365 2°51.606 331.6 11.6 327 11
2008-11-27 08:33:49 51°17.379 2°51.592 331.5 11.6 327 10.9
2008-11-27 08:33:54 51°17.392 2°51.578 331.3 11.6 327 10.7
2008-11-27 08:33:59 51°17.406 2°51.564 331.8 11.6 328 10.8
2008-11-27 08:34:04 51°17.419 2°51.55 331.8 11.6 326 10.7
2008-11-27 08:34:09 51°17.432 2°51.536 331.4 11.7 326 10.2
2008-11-27 08:34:14 51°17.446 2°51.521 331.1 11.6 326 9.6
2008-11-27 08:34:19 51°17.459 2°51.507 330.9 11.6 326 9.5
2008-11-27 08:34:24 51°17.472 2°51.493 330.9 11.6 326 10
2008-11-27 08:34:30 51°17.487 2°51.477 330.9 11.6 327 10.1
2008-11-27 08:34:34 51°17.498 2°51.466 332 11.6 328 10
2008-11-27 08:34:39 51°17.511 2°51.451 330.9 11.7 325 10
2008-11-27 08:34:44 51°17.525 2°51.437 330.4 11.6 327 9.6
2008-11-27 08:34:50 51°17.541 2°51.419 330.2 11.7 326 9.7
2008-11-27 08:34:54 51°17.552 2°51.408 330.5 11.6 327 9.6
2008-11-27 08:34:59 51°17.566 2°51.394 330.6 11.7 326 9.6
2008-11-27 08:35:03 51°17.577 2°51.383 330.9 11.7 326 9.5
2008-11-27 08:35:09 51°17.592 2°51.364 329.8 11.7 324 9.3
2008-11-27 08:35:14 51°17.606 2°51.35 329.5 11.6 325 9.5
2008-11-27 08:35:19 51°17.619 2°51.335 329.5 11.7 325 9.4
2008-11-27 08:35:24 51°17.632 2°51.32 329.9 11.7 325 9.6
2008-11-27 08:35:29 51°17.645 2°51.306 329.5 11.7 325 9.5
2008-11-27 08:35:34 51°17.658 2°51.29 329.5 11.7 324 9.6
2008-11-27 08:35:39 51°17.672 2°51.275 329.1 11.7 325 9.8
2008-11-27 08:35:44 51°17.685 2°51.26 329.4 11.7 325 9.9
2008-11-27 08:35:49 51°17.698 2°51.245 330.1 11.7 325 10
2008-11-27 08:35:54 51°17.711 2°51.23 330.1 11.7 325 10
2008-11-27 08:35:59 51°17.725 2°51.216 330.9 11.7 327 10.1
2008-11-27 08:36:04 51°17.738 2°51.201 330.4 11.7 324 10.1
2008-11-27 08:36:09 51°17.752 2°51.186 329.6 11.7 325 10.4
2008-11-27 08:36:14 51°17.765 2°51.17 329.2 11.7 324 10.2
2008-11-27 08:36:19 51°17.778 2°51.155 328.9 11.7 324 10.5
2008-11-27 08:36:25 51°17.794 2°51.137 328.6 11.8 324 10.5
2008-11-27 08:36:29 51°17.805 2°51.125 329 11.8 326 10.5
2008-11-27 08:36:34 51°17.818 2°51.11 329.4 11.8 325 10.5
2008-11-27 08:36:39 51°17.831 2°51.095 329.9 11.8 326 10.8
2008-11-27 08:36:44 51°17.845 2°51.08 330.6 11.9 326 11
2008-11-27 08:36:49 51°17.859 2°51.066 331.6 11.8 328 11.2
2008-11-27 08:36:54 51°17.873 2°51.052 332 11.9 327 11.4
2008-11-27 08:36:59 51°17.887 2°51.039 333 11.8 329 11.4
2008-11-27 08:37:04 51°17.901 2°51.025 334.3 11.8 328 11.4
2008-11-27 08:37:09 51°17.915 2°51.012 334 11.8 329 11.5
2008-11-27 08:37:14 51°17.929 2°50.999 333.6 11.7 330 11.5
2008-11-27 08:37:19 51°17.943 2°50.986 334.4 11.7 331 12
2008-11-27 08:37:24 51°17.957 2°50.973 334.8 11.8 328 12
2008-11-27 08:37:29 51°17.971 2°50.959 333.6 11.7 329 11.8
2008-11-27 08:37:34 51°17.985 2°50.946 333.8 11.8 329 12
2008-11-27 08:37:39 51°17.999 2°50.931 333.1 11.8 328 12.1
2008-11-27 08:37:44 51°18.013 2°50.918 333.4 11.8 329 12.3
2008-11-27 08:37:49 51°18.027 2°50.904 334 11.9 328 12.4
2008-11-27 08:37:54 51°18.041 2°50.891 334.4 12 329 12.5
2008-11-27 08:37:59 51°18.055 2°50.878 334.2 11.9 330 12.7
2008-11-27 08:38:04 51°18.069 2°50.864 333.1 11.8 329 12.6
2008-11-27 08:38:09 51°18.084 2°50.851 334 11.9 329 12.7
2008-11-27 08:38:14 51°18.097 2°50.836 333 12 326 12.7
2008-11-27 08:38:19 51°18.112 2°50.822 333.4 11.9 329 12.9
2008-11-27 08:38:24 51°18.126 2°50.808 333 12 328 13.2
2008-11-27 08:38:29 51°18.14 2°50.793 332.3 12 327 13
2008-11-27 08:38:34 51°18.154 2°50.78 332.6 12 329 13.1
2008-11-27 08:38:39 51°18.168 2°50.765 332.6 11.9 327 13.1
2008-11-27 08:38:44 51°18.182 2°50.753 334.7 11.9 330 13
2008-11-27 08:38:49 51°18.197 2°50.739 334.7 12 329 13.2
2008-11-27 08:38:54 51°18.211 2°50.725 334.5 11.9 329 13.3
2008-11-27 08:38:59 51°18.225 2°50.712 335 11.9 331 13.4
2008-11-27 08:39:04 51°18.239 2°50.698 335.1 12 329 13.6
2008-11-27 08:39:09 51°18.254 2°50.685 335.2 11.9 331 13.5
2008-11-27 08:39:14 51°18.268 2°50.671 335.3 12 329 13.8
2008-11-27 08:39:18 51°18.279 2°50.662 336 11.9 330 13.5
2008-11-27 08:39:24 51°18.296 2°50.645 335.6 11.9 331 13.5
2008-11-27 08:39:29 51°18.311 2°50.632 335.8 12 328 13.9
2008-11-27 08:39:34 51°18.325 2°50.619 335.7 11.8 331 13.6
2008-11-27 08:39:39 51°18.339 2°50.606 336.4 11.8 329 14
2008-11-27 08:39:44 51°18.354 2°50.594 336.1 11.8 331 13.9
2008-11-27 08:39:49 51°18.368 2°50.579 335.3 11.8 328 13.9
2008-11-27 08:39:53 51°18.379 2°50.57 335.7 11.8 330 14
2008-11-27 08:39:59 51°18.396 2°50.552 334.3 11.8 328 14.1
2008-11-27 08:40:03 51°18.407 2°50.543 336.1 11.8 331 14.1
2008-11-27 08:40:09 51°18.424 2°50.525 334.6 11.9 326 14.2
2008-11-27 08:40:14 51°18.438 2°50.513 336 11.7 332 14.1
2008-11-27 08:40:19 51°18.452 2°50.498 335.8 11.8 327 14
2008-11-27 08:40:24 51°18.466 2°50.486 336 11.7 330 14
2008-11-27 08:40:29 51°18.479 2°50.471 335.2 11.7 326 14.1
2008-11-27 08:40:34 51°18.494 2°50.459 335.8 11.7 331 14.3
2008-11-27 08:40:39 51°18.507 2°50.444 335.2 11.8 326 14.2
2008-11-27 08:40:44 51°18.521 2°50.43 334.8 11.8 329 14.3
2008-11-27 08:40:49 51°18.535 2°50.417 334.8 11.8 328 14.3
2008-11-27 08:40:54 51°18.549 2°50.403 335.4 11.7 329 14.2
2008-11-27 08:40:59 51°18.563 2°50.39 336.1 11.7 329 14.4
2008-11-27 08:41:04 51°18.577 2°50.377 335.8 11.7 328 14.3
2008-11-27 08:41:09 51°18.591 2°50.364 336 11.7 330 14.5
2008-11-27 08:41:14 51°18.604 2°50.35 335.7 11.7 327 14.3
2008-11-27 08:41:19 51°18.618 2°50.337 335.9 11.6 330 14.3
2008-11-27 08:41:24 51°18.632 2°50.323 335.5 11.8 326 14.4
2008-11-27 08:41:30 51°18.649 2°50.308 334.8 11.7 331 14.5
2008-11-27 08:41:34 51°18.66 2°50.296 335.2 11.7 327 14.4
2008-11-27 08:41:39 51°18.674 2°50.283 335.7 11.7 331 14.3
2008-11-27 08:41:44 51°18.688 2°50.27 336.6 11.8 329 14.2
2008-11-27 08:41:50 51°18.705 2°50.255 336.3 11.8 330 14.2
2008-11-27 08:41:54 51°18.717 2°50.245 337.3 11.8 332 14.3
2008-11-27 08:41:58 51°18.728 2°50.235 337.5 11.7 333 13.9
2008-11-27 08:42:04 51°18.745 2°50.221 337.4 11.7 331 13.8
2008-11-27 08:42:09 51°18.76 2°50.209 337.4 11.7 334 13.9
2008-11-27 08:42:13 51°18.772 2°50.2 338.2 11.6 334 13.7
2008-11-27 08:42:19 51°18.789 2°50.186 337.9 11.7 333 13.7
2008-11-27 08:42:24 51°18.804 2°50.174 338.7 11.8 334 13.7
2008-11-27 08:42:29 51°18.818 2°50.162 338.1 11.8 333 13.5
2008-11-27 08:42:34 51°18.833 2°50.151 338.5 11.8 334 13.2
2008-11-27 08:42:39 51°18.848 2°50.139 338.3 11.8 333 13.5
2008-11-27 08:42:44 51°18.862 2°50.128 338.5 11.8 334 13.3
2008-11-27 08:42:49 51°18.877 2°50.117 338.2 11.7 335 13.1
2008-11-27 08:42:53 51°18.889 2°50.108 339.1 11.8 336 13.3
2008-11-27 08:42:59 51°18.907 2°50.095 339.6 11.7 335 12.8
2008-11-27 08:43:04 51°18.921 2°50.084 339.5 11.8 335 12.9
2008-11-27 08:43:09 51°18.936 2°50.073 339 11.8 335 12.9
2008-11-27 08:43:14 51°18.951 2°50.062 339.5 11.7 336 12.4
2008-11-27 08:43:18 51°18.963 2°50.054 339.9 11.8 336 12.6
2008-11-27 08:43:25 51°18.984 2°50.039 339.6 11.8 336 12.4
2008-11-27 08:43:29 51°18.996 2°50.03 339 11.7 334 11.8
2008-11-27 08:43:34 51°19.011 2°50.019 338.5 11.8 334 12
2008-11-27 08:43:39 51°19.025 2°50.007 338.3 11.7 334 11.9
2008-11-27 08:43:44 51°19.04 2°49.996 338.7 11.8 335 12.1
2008-11-27 08:43:49 51°19.055 2°49.985 338.9 11.9 334 12.3
2008-11-27 08:43:54 51°19.07 2°49.974 339.2 11.8 336 11.4
2008-11-27 08:43:59 51°19.085 2°49.963 339.4 11.7 335 11.6
2008-11-27 08:44:04 51°19.1 2°49.952 339.2 11.8 335 11.4
2008-11-27 08:44:09 51°19.114 2°49.94 338.3 11.9 334 11.4
2008-11-27 08:44:13 51°19.126 2°49.932 338.6 11.9 336 11.4
2008-11-27 08:44:19 51°19.144 2°49.917 338.9 11.9 334 11.1
2008-11-27 08:44:24 51°19.159 2°49.907 338.6 11.8 335 10.8
2008-11-27 08:44:29 51°19.174 2°49.896 338.8 11.9 335 10.9
2008-11-27 08:44:34 51°19.189 2°49.884 339 11.9 335 11
2008-11-27 08:44:39 51°19.204 2°49.874 339 11.8 336 10.9
2008-11-27 08:44:44 51°19.219 2°49.863 338.9 11.9 336 11.1
2008-11-27 08:44:49 51°19.234 2°49.853 339.5 11.8 337 11.6
2008-11-27 08:44:54 51°19.249 2°49.841 339 11.8 335 11.6
2008-11-27 08:44:59 51°19.264 2°49.83 338.1 11.9 335 12.2
2008-11-27 08:45:03 51°19.276 2°49.821 338.3 11.9 336 12.5
2008-11-27 08:45:09 51°19.293 2°49.807 338.1 11.9 334 12.4
2008-11-27 08:45:14 51°19.308 2°49.796 337.2 11.9 334 12.6
2008-11-27 08:45:19 51°19.323 2°49.785 338.1 11.9 335 12.9
2008-11-27 08:45:24 51°19.338 2°49.773 337.8 12 334 13.2
2008-11-27 08:45:30 51°19.357 2°49.759 337.4 12 334 13.3
2008-11-27 08:45:34 51°19.368 2°49.75 337.6 12 334 13.3
2008-11-27 08:45:39 51°19.383 2°49.738 337.9 12 335 13.5
2008-11-27 08:45:44 51°19.398 2°49.726 337.8 12.1 333 13.5
2008-11-27 08:45:49 51°19.413 2°49.714 336.9 12 333 13.3
2008-11-27 08:45:54 51°19.428 2°49.702 336.7 12 333 13.4
2008-11-27 08:45:58 51°19.44 2°49.693 337.3 11.9 335 13.4
2008-11-27 08:46:04 51°19.458 2°49.679 337.3 11.9 333 13.4
2008-11-27 08:46:09 51°19.473 2°49.667 337.3 12 332 13.9
2008-11-27 08:46:14 51°19.487 2°49.655 337.2 11.9 333 13.9
2008-11-27 08:46:19 51°19.502 2°49.642 336.3 12 331 14.2
2008-11-27 08:46:24 51°19.517 2°49.63 336.7 12 333 14.4
2008-11-27 08:46:29 51°19.531 2°49.617 336.6 12 333 14.5
2008-11-27 08:46:34 51°19.546 2°49.604 336.7 12 331 14.9
2008-11-27 08:46:39 51°19.561 2°49.593 336.7 12 333 14.9
2008-11-27 08:46:44 51°19.576 2°49.58 336.6 12.1 332 15.2
2008-11-27 08:46:49 51°19.591 2°49.569 337.7 12 334 15.4
2008-11-27 08:46:54 51°19.606 2°49.556 338 12.1 333 15.6
2008-11-27 08:46:59 51°19.621 2°49.545 338.2 12.1 334 15.7
2008-11-27 08:47:04 51°19.636 2°49.532 339 12.1 333 15.8
2008-11-27 08:47:09 51°19.651 2°49.521 338.7 12.2 335 15.8
2008-11-27 08:47:14 51°19.666 2°49.509 338.6 12.1 334 16.1
2008-11-27 08:47:19 51°19.681 2°49.498 339.1 12.1 334 16.1
2008-11-27 08:47:24 51°19.696 2°49.486 338.7 12 334 16.1
2008-11-27 08:47:29 51°19.711 2°49.474 339.3 12 334 16.2
2008-11-27 08:47:34 51°19.726 2°49.463 338.9 12 334 16.5
2008-11-27 08:47:39 51°19.741 2°49.451 339 12.1 333 16.7
2008-11-27 08:47:44 51°19.756 2°49.44 339.2 11.9 336 16.7
2008-11-27 08:47:49 51°19.771 2°49.428 339.7 12.1 335 17.3
2008-11-27 08:47:54 51°19.786 2°49.416 338.7 12.1 332 17.2
2008-11-27 08:47:59 51°19.801 2°49.404 338.4 12.1 333 17.3
2008-11-27 08:48:04 51°19.816 2°49.392 338.2 12.2 333 17.6
2008-11-27 08:48:10 51°19.834 2°49.378 338.3 12.1 334 17.9
2008-11-27 08:48:14 51°19.846 2°49.368 338.8 12.2 334 18.1
2008-11-27 08:48:19 51°19.861 2°49.356 338.9 12.2 333 18.4
2008-11-27 08:48:24 51°19.877 2°49.345 338.9 12.2 334 18.3
2008-11-27 08:48:30 51°19.895 2°49.33 338.9 12.2 334 18.8
2008-11-27 08:48:34 51°19.907 2°49.321 338.9 12.1 335 18.8
2008-11-27 08:48:39 51°19.922 2°49.309 338.9 12.1 333 18.8
2008-11-27 08:48:44 51°19.937 2°49.297 338.7 12.1 334 19
2008-11-27 08:48:49 51°19.952 2°49.285 339 12.2 334 19.3
2008-11-27 08:48:54 51°19.968 2°49.273 338.8 12.3 333 19.7
2008-11-27 08:48:59 51°19.983 2°49.261 338.5 12.2 332 20
2008-11-27 08:49:04 51°19.997 2°49.249 337.9 12.1 333 19.8
2008-11-27 08:49:09 51°20.012 2°49.236 338.3 12.1 332 20.2
2008-11-27 08:49:14 51°20.027 2°49.225 338.4 12 334 20.3
2008-11-27 08:49:19 51°20.042 2°49.213 338.1 12.1 333 20.9
2008-11-27 08:49:24 51°20.057 2°49.202 339.2 12 335 20.9
2008-11-27 08:49:29 51°20.071 2°49.189 339.3 12 333 21
2008-11-27 08:49:34 51°20.086 2°49.178 338.6 11.9 334 21.2
2008-11-27 08:49:39 51°20.101 2°49.165 338.7 12.1 332 21.7
2008-11-27 08:49:44 51°20.117 2°49.154 338.6 11.9 335 21.7
2008-11-27 08:49:49 51°20.131 2°49.142 339 11.9 333 21.9
2008-11-27 08:49:54 51°20.146 2°49.131 338.9 11.8 335 22.1
2008-11-27 08:49:59 51°20.161 2°49.119 338.2 11.8 332 21.8
2008-11-27 08:50:05 51°20.178 2°49.105 339.1 11.8 334 22.1
2008-11-27 08:50:09 51°20.19 2°49.095 339.1 11.9 333 22.2
2008-11-27 08:50:14 51°20.205 2°49.083 338.2 12 332 22.5
2008-11-27 08:50:19 51°20.22 2°49.071 338.7 12.1 333 22.8
2008-11-27 08:50:24 51°20.234 2°49.058 338.2 12 332 22.6
2008-11-27 08:50:29 51°20.249 2°49.047 338.2 11.9 334 22.8
2008-11-27 08:50:34 51°20.264 2°49.034 339.2 12.1 332 22.9
2008-11-27 08:50:39 51°20.279 2°49.022 338.2 11.9 334 22.7
2008-11-27 08:50:44 51°20.294 2°49.01 339.3 12.1 333 22.8
2008-11-27 08:50:50 51°20.311 2°48.996 338.5 12 333 22.8
2008-11-27 08:50:54 51°20.323 2°48.987 338.1 12 334 22.8
2008-11-27 08:50:59 51°20.338 2°48.974 338.4 12 333 22.7
2008-11-27 08:51:04 51°20.353 2°48.961 338.2 12 332 22.7
2008-11-27 08:51:10 51°20.371 2°48.948 339 12 335 23
2008-11-27 08:51:14 51°20.382 2°48.938 338.5 12 332 22.9
2008-11-27 08:51:19 51°20.397 2°48.927 338.9 11.9 335 22.9
2008-11-27 08:51:24 51°20.412 2°48.915 339.1 11.9 334 22.9
2008-11-27 08:51:29 51°20.427 2°48.903 338.6 12 333 23
2008-11-27 08:51:34 51°20.442 2°48.892 339 12 333 22.9
2008-11-27 08:51:39 51°20.457 2°48.879 338.5 12 332 22.9
2008-11-27 08:51:44 51°20.472 2°48.867 337.6 12.1 332 23.1
2008-11-27 08:51:49 51°20.486 2°48.854 337.1 12.1 332 22.8
2008-11-27 08:51:54 51°20.501 2°48.843 338.1 11.9 334 22.9
2008-11-27 08:51:59 51°20.516 2°48.83 338.1 12 333 23.1
2008-11-27 08:52:04 51°20.531 2°48.819 338.8 12.1 334 23
2008-11-27 08:52:09 51°20.546 2°48.806 338.8 12 333 23
2008-11-27 08:52:14 51°20.561 2°48.794 338.5 12 332 23.1
2008-11-27 08:52:19 51°20.575 2°48.783 338.2 11.9 334 22.8
2008-11-27 08:52:24 51°20.59 2°48.771 339.1 11.9 332 22.5
2008-11-27 08:52:29 51°20.604 2°48.758 338 11.9 332 22.8
2008-11-27 08:52:34 51°20.619 2°48.746 337.7 12 332 22.8
2008-11-27 08:52:39 51°20.633 2°48.733 337.8 11.9 331 22.6
2008-11-27 08:52:44 51°20.648 2°48.721 337.6 11.9 333 22.7
2008-11-27 08:52:49 51°20.663 2°48.709 338.7 11.9 333 22.5
2008-11-27 08:52:54 51°20.678 2°48.698 338.2 11.8 334 22.5
2008-11-27 08:52:59 51°20.692 2°48.685 338.7 12 332 22.6
2008-11-27 08:53:04 51°20.707 2°48.673 337.8 11.9 332 22.3
2008-11-27 08:53:09 51°20.721 2°48.661 338.8 11.9 333 22.4
2008-11-27 08:53:14 51°20.736 2°48.649 338.3 11.9 332 22.2
2008-11-27 08:53:19 51°20.751 2°48.637 338.1 11.9 333 22.1
2008-11-27 08:53:24 51°20.765 2°48.624 338.9 11.9 331 22
2008-11-27 08:53:29 51°20.78 2°48.612 337.1 11.9 332 21.9
2008-11-27 08:53:34 51°20.794 2°48.6 337.8 11.9 333 21.7
2008-11-27 08:53:39 51°20.809 2°48.587 338.1 11.9 332 21.8
2008-11-27 08:53:44 51°20.824 2°48.575 337.3 11.9 332 21.7
2008-11-27 08:53:49 51°20.838 2°48.563 338.2 11.9 333 21.5
2008-11-27 08:53:54 51°20.853 2°48.551 338.3 11.9 332 21.4
2008-11-27 08:53:59 51°20.868 2°48.539 338.8 11.9 334 21.3
2008-11-27 08:54:04 51°20.883 2°48.527 338.8 11.9 334 21.3
2008-11-27 08:54:09 51°20.897 2°48.516 339.5 11.9 333 21.1
2008-11-27 08:54:14 51°20.912 2°48.504 338.5 11.9 333 21.1
2008-11-27 08:54:19 51°20.927 2°48.492 339 11.8 333 20.8
2008-11-27 08:54:24 51°20.941 2°48.48 338.1 11.9 333 20.7
2008-11-27 08:54:29 51°20.956 2°48.468 338.8 11.9 334 20.7
2008-11-27 08:54:34 51°20.97 2°48.456 339 11.8 333 20.5
2008-11-27 08:54:39 51°20.985 2°48.445 338.4 11.8 335 20.3
2008-11-27 08:54:44 51°21 2°48.433 339.2 11.9 332 20.5
2008-11-27 08:54:50 51°21.018 2°48.419 338.7 11.8 334 20.6
2008-11-27 08:54:54 51°21.029 2°48.41 338.3 11.9 333 20.7
2008-11-27 08:54:59 51°21.044 2°48.398 338.7 11.9 333 20.5
2008-11-27 08:55:04 51°21.059 2°48.386 338.8 11.9 334 20.5
2008-11-27 08:55:09 51°21.074 2°48.375 338.9 11.9 334 20.4
2008-11-27 08:55:14 51°21.088 2°48.362 338.6 12 332 20.4
2008-11-27 08:55:19 51°21.103 2°48.35 337.5 11.9 333 20.7
2008-11-27 08:55:24 51°21.118 2°48.338 337.4 11.9 333 20.8
2008-11-27 08:55:29 51°21.132 2°48.325 336.7 12 331 20.7
2008-11-27 08:55:34 51°21.147 2°48.314 337.5 11.9 334 20.8
2008-11-27 08:55:39 51°21.162 2°48.301 337.3 12 331 20.9
2008-11-27 08:55:44 51°21.177 2°48.29 338.4 11.9 335 20.9
2008-11-27 08:55:49 51°21.191 2°48.277 337.6 12 332 20.8
2008-11-27 08:55:54 51°21.206 2°48.267 338.9 11.9 336 20.8
2008-11-27 08:55:59 51°21.221 2°48.254 338.5 12 334 20.6
2008-11-27 08:56:04 51°21.237 2°48.244 338.9 12 336 20.8
2008-11-27 08:56:09 51°21.252 2°48.232 339 12 334 21.1
2008-11-27 08:56:14 51°21.267 2°48.221 338.5 11.9 335 21.1
2008-11-27 08:56:19 51°21.281 2°48.208 337.9 12 333 21.8
2008-11-27 08:56:24 51°21.296 2°48.197 338 11.9 334 21.8
2008-11-27 08:56:29 51°21.311 2°48.185 338.4 11.9 334 22.1
2008-11-27 08:56:34 51°21.326 2°48.174 338.5 11.9 335 22.4
2008-11-27 08:56:39 51°21.341 2°48.163 338.7 11.8 335 22.4
2008-11-27 08:56:44 51°21.356 2°48.152 339 11.9 334 22.3
2008-11-27 08:56:49 51°21.371 2°48.14 338.7 11.9 335 22.8
2008-11-27 08:56:54 51°21.386 2°48.129 338.6 11.9 335 22.8
2008-11-27 08:56:59 51°21.401 2°48.117 338.6 11.9 334 22.7
2008-11-27 08:57:04 51°21.416 2°48.106 338.2 11.9 335 23.1
2008-11-27 08:57:10 51°21.434 2°48.093 338.9 11.9 336 23.1
2008-11-27 08:57:14 51°21.446 2°48.084 339.3 12 334 23.2
2008-11-27 08:57:19 51°21.461 2°48.072 339.3 12 335 23.3
2008-11-27 08:57:24 51°21.476 2°48.061 339.1 12 334 23.2
2008-11-27 08:57:29 51°21.491 2°48.049 339 12.1 334 23.3
2008-11-27 08:57:34 51°21.506 2°48.038 339 12.1 334 23.5
2008-11-27 08:57:39 51°21.521 2°48.026 338.2 12.1 335 23.4
2008-11-27 08:57:44 51°21.535 2°48.014 338.2 12 334 23.6
2008-11-27 08:57:49 51°21.55 2°48.003 337.9 12 334 23.6
2008-11-27 08:57:54 51°21.565 2°47.991 338.2 12 334 23.6
2008-11-27 08:57:59 51°21.581 2°47.979 337.7 12.1 334 23.7
2008-11-27 08:58:04 51°21.596 2°47.967 338 12.2 334 23.7
2008-11-27 08:58:09 51°21.611 2°47.955 338 12.1 335 23.5
2008-11-27 08:58:14 51°21.626 2°47.944 338.6 12.1 336 23.7
2008-11-27 08:58:19 51°21.641 2°47.933 339 12.1 334 23.8
2008-11-27 08:58:24 51°21.656 2°47.921 338.5 12 334 23.9
2008-11-27 08:58:29 51°21.671 2°47.91 338.1 12 335 23.7
2008-11-27 08:58:34 51°21.686 2°47.898 338.8 12.1 334 23.6
2008-11-27 08:58:39 51°21.701 2°47.886 337.8 12.1 334 23.8
2008-11-27 08:58:44 51°21.717 2°47.875 338.2 12.1 335 23.5
2008-11-27 08:58:49 51°21.732 2°47.864 339.2 12.1 335 23.6
2008-11-27 08:58:54 51°21.747 2°47.852 338.1 12.1 333 23.7
2008-11-27 08:58:59 51°21.762 2°47.841 338.5 12.1 335 23.9
2008-11-27 08:59:04 51°21.777 2°47.829 338.1 12.1 333 24.3
2008-11-27 08:59:09 51°21.791 2°47.817 337.6 11.9 335 24
2008-11-27 08:59:14 51°21.807 2°47.806 338.3 12.1 335 24.1
2008-11-27 08:59:19 51°21.822 2°47.794 337.7 12 334 24.2
2008-11-27 08:59:24 51°21.836 2°47.782 338.1 12 334 23.7
2008-11-27 08:59:30 51°21.854 2°47.769 338.1 12 335 23.6
2008-11-27 08:59:34 51°21.866 2°47.76 338.5 12.1 334 23.7
2008-11-27 08:59:39 51°21.881 2°47.748 338.6 12 334 24
2008-11-27 08:59:44 51°21.896 2°47.737 338.1 11.8 334 24.1
2008-11-27 08:59:49 51°21.911 2°47.726 338.9 11.9 336 23.9
2008-11-27 08:59:54 51°21.926 2°47.715 339.6 12 335 23.7
2008-11-27 08:59:59 51°21.941 2°47.704 338.9 11.8 335 24
2008-11-27 09:00:04 51°21.956 2°47.692 338.5 11.9 334 24
2008-11-27 09:00:09 51°21.971 2°47.681 338.7 11.8 336 24.1
2008-11-27 09:00:14 51°21.986 2°47.669 338.5 11.9 334 24.3
2008-11-27 09:00:19 51°22.001 2°47.659 338.5 12 336 24.2
2008-11-27 09:00:24 51°22.016 2°47.647 338.3 12 333 24.1
2008-11-27 09:00:29 51°22.031 2°47.636 338.3 12 336 24.4
2008-11-27 09:00:34 51°22.046 2°47.624 338.4 12 334 24.5
2008-11-27 09:00:39 51°22.061 2°47.612 337.3 12 333 24.1
2008-11-27 09:00:44 51°22.076 2°47.601 337.6 12 335 24.3
2008-11-27 09:00:49 51°22.09 2°47.587 337 12 331 24.2
2008-11-27 09:00:54 51°22.106 2°47.577 337.8 11.9 336 24.1
2008-11-27 09:00:59 51°22.12 2°47.564 337.4 12 332 24
2008-11-27 09:01:04 51°22.135 2°47.553 337.6 11.9 335 23.8
2008-11-27 09:01:09 51°22.15 2°47.541 338.4 11.9 334 23.2
2008-11-27 09:01:14 51°22.165 2°47.53 338.1 12 334 23.4
2008-11-27 09:01:19 51°22.18 2°47.518 338.1 12 334 23.5
2008-11-27 09:01:24 51°22.195 2°47.507 338.5 12 335 23.1
2008-11-27 09:01:29 51°22.209 2°47.495 338.5 11.9 334 22.3
2008-11-27 09:01:34 51°22.225 2°47.485 339.5 11.8 336 21.7
2008-11-27 09:01:39 51°22.239 2°47.472 338.3 11.9 331 21.2
2008-11-27 09:01:44 51°22.254 2°47.462 338.5 11.8 336 20.9
2008-11-27 09:01:49 51°22.269 2°47.45 337.3 11.9 334 20.3
2008-11-27 09:01:54 51°22.283 2°47.437 337 12 331 20.1
2008-11-27 09:01:59 51°22.298 2°47.426 337.8 11.9 336 20.8
2008-11-27 09:02:04 51°22.313 2°47.414 337.6 12 332 20.3
2008-11-27 09:02:09 51°22.327 2°47.402 338.1 11.9 335 20
2008-11-27 09:02:14 51°22.342 2°47.39 338.1 11.9 333 19.5
2008-11-27 09:02:19 51°22.357 2°47.378 337.6 11.9 333 19.1
2008-11-27 09:02:24 51°22.372 2°47.367 337.4 11.9 334 19
2008-11-27 09:02:29 51°22.386 2°47.354 337.4 11.9 331 18.6
2008-11-27 09:02:34 51°22.401 2°47.343 337.4 12 334 18.7
2008-11-27 09:02:39 51°22.416 2°47.33 337.4 11.9 332 18.3
2008-11-27 09:02:44 51°22.43 2°47.318 337.4 11.9 333 17.6
2008-11-27 09:02:49 51°22.445 2°47.305 336.9 12 331 16.6
2008-11-27 09:02:54 51°22.46 2°47.295 338.1 11.8 335 15.1
2008-11-27 09:02:59 51°22.474 2°47.282 337.4 11.8 332 14.2
2008-11-27 09:03:04 51°22.489 2°47.27 338.1 11.9 333 15.1
2008-11-27 09:03:09 51°22.503 2°47.257 337 11.8 332 17.2
2008-11-27 09:03:14 51°22.518 2°47.247 338.1 11.8 337 18.6
2008-11-27 09:03:19 51°22.532 2°47.234 338 11.9 333 18.9
2008-11-27 09:03:24 51°22.547 2°47.224 339 11.8 335 19.1
2008-11-27 09:03:29 51°22.561 2°47.212 338.2 11.8 333 19.2
2008-11-27 09:03:34 51°22.576 2°47.201 337.1 11.6 334 19.3
2008-11-27 09:03:39 51°22.59 2°47.19 339 11.7 335 19.7
2008-11-27 09:03:45 51°22.608 2°47.175 338 11.8 333 19.7
2008-11-27 09:03:49 51°22.62 2°47.166 337.7 11.9 333 19.8
2008-11-27 09:03:54 51°22.634 2°47.155 338.5 11.8 334 19.8
2008-11-27 09:03:59 51°22.649 2°47.143 338.1 11.8 333 19.7
2008-11-27 09:04:04 51°22.663 2°47.132 338.1 11.8 334 19.9
2008-11-27 09:04:09 51°22.678 2°47.12 338.1 11.9 334 20
2008-11-27 09:04:14 51°22.693 2°47.109 338.5 11.9 335 19.8
2008-11-27 09:04:19 51°22.708 2°47.098 337.6 11.7 335 19.8
2008-11-27 09:04:24 51°22.722 2°47.086 338.5 11.8 333 19.9
2008-11-27 09:04:30 51°22.74 2°47.072 337.5 11.9 333 19.4
2008-11-27 09:04:34 51°22.752 2°47.063 337.8 11.9 334 19.6
2008-11-27 09:04:39 51°22.767 2°47.051 337.5 11.9 334 19
2008-11-27 09:04:44 51°22.781 2°47.039 338 11.9 333 18.4
2008-11-27 09:04:49 51°22.795 2°47.028 337.8 11.8 335 17.8
2008-11-27 09:04:54 51°22.81 2°47.015 338 11.9 332 16.8
2008-11-27 09:04:59 51°22.825 2°47.005 339.3 11.7 337 18.1
2008-11-27 09:05:04 51°22.84 2°46.993 339 11.8 333 19.1
2008-11-27 09:05:09 51°22.855 2°46.982 338.9 11.9 335 19.6
2008-11-27 09:05:14 51°22.869 2°46.971 338.9 11.8 334 20
2008-11-27 09:05:19 51°22.884 2°46.959 338.6 11.9 334 19.9
2008-11-27 09:05:24 51°22.899 2°46.948 337.7 11.7 335 19.8
2008-11-27 09:05:29 51°22.914 2°46.936 338.9 11.8 334 19.9
2008-11-27 09:05:34 51°22.929 2°46.925 338.7 12 334 19.7
2008-11-27 09:05:39 51°22.944 2°46.914 339.5 11.9 336 19.4
2008-11-27 09:05:44 51°22.959 2°46.903 339.1 11.8 334 19.8
2008-11-27 09:05:49 51°22.974 2°46.892 339.1 11.8 336 19.7
2008-11-27 09:05:54 51°22.988 2°46.881 339 11.9 335 19.6
2008-11-27 09:05:59 51°23.003 2°46.869 338.8 11.9 334 19.5
2008-11-27 09:06:04 51°23.018 2°46.858 338.4 11.9 336 19.2
2008-11-27 09:06:09 51°23.033 2°46.846 338.6 12 334 19.1
2008-11-27 09:06:14 51°23.048 2°46.834 337.4 11.9 334 18.9
2008-11-27 09:06:19 51°23.062 2°46.824 339.5 11.8 336 18.5
2008-11-27 09:06:24 51°23.078 2°46.811 339 12.1 333 18.5
2008-11-27 09:06:30 51°23.096 2°46.798 337.7 11.9 335 18.3
2008-11-27 09:06:34 51°23.107 2°46.79 339 11.9 335 18.8
2008-11-27 09:06:39 51°23.122 2°46.778 338.6 11.9 335 18.9
2008-11-27 09:06:44 51°23.137 2°46.766 339.3 12 333 18.8
2008-11-27 09:06:49 51°23.151 2°46.755 338.9 11.8 336 19
2008-11-27 09:06:54 51°23.166 2°46.743 338.8 11.9 334 20.4
2008-11-27 09:06:59 51°23.181 2°46.732 337.4 12 335 22.2
2008-11-27 09:07:04 51°23.196 2°46.721 338 11.9 334 23.1
2008-11-27 09:07:09 51°23.211 2°46.709 337.9 12 334 23.7
2008-11-27 09:07:14 51°23.226 2°46.697 337.4 12 334 24.4
2008-11-27 09:07:19 51°23.241 2°46.686 338.3 12 334 24.7
2008-11-27 09:07:24 51°23.256 2°46.675 338.5 12 336 25.1
2008-11-27 09:07:29 51°23.271 2°46.663 337.5 11.9 334 25.1
2008-11-27 09:07:34 51°23.286 2°46.651 338.3 12 335 25.3
2008-11-27 09:07:39 51°23.3 2°46.639 337.7 12 334 25.5
2008-11-27 09:07:44 51°23.316 2°46.628 337.9 12 333 25.4
2008-11-27 09:07:49 51°23.33 2°46.617 339.1 11.8 336 25.5
2008-11-27 09:07:54 51°23.345 2°46.604 337.8 11.9 332 25.6
2008-11-27 09:07:59 51°23.36 2°46.593 337.9 12 335 25.3
2008-11-27 09:08:04 51°23.375 2°46.582 338.3 11.9 334 24.7
2008-11-27 09:08:09 51°23.389 2°46.569 337.5 11.9 332 24.5
2008-11-27 09:08:14 51°23.405 2°46.559 337.4 12 335 24.1
2008-11-27 09:08:19 51°23.419 2°46.545 337.3 12 330 24.3
2008-11-27 09:08:24 51°23.434 2°46.536 337.3 11.8 337 23.9
2008-11-27 09:08:30 51°23.451 2°46.52 336.7 12 332 24.4
2008-11-27 09:08:34 51°23.463 2°46.512 337.6 11.8 335 23.5
2008-11-27 09:08:39 51°23.478 2°46.5 338.1 11.8 336 24.2
2008-11-27 09:08:44 51°23.493 2°46.489 338.3 11.8 334 24.7
2008-11-27 09:08:49 51°23.508 2°46.477 338.4 11.8 333 26.3
2008-11-27 09:08:54 51°23.522 2°46.466 337.4 11.7 335 26.9
2008-11-27 09:08:59 51°23.537 2°46.455 338.7 11.9 334 26.9
2008-11-27 09:09:04 51°23.552 2°46.442 337.4 11.9 334 26.7
2008-11-27 09:09:09 51°23.567 2°46.431 338.8 11.9 334 26.2
2008-11-27 09:09:14 51°23.582 2°46.42 337.9 11.9 334 26.1
2008-11-27 09:09:19 51°23.597 2°46.407 337.7 12 333 26.9
2008-11-27 09:09:24 51°23.612 2°46.397 338.1 11.9 336 27.3
2008-11-27 09:09:29 51°23.626 2°46.385 338 12 333 26.1
2008-11-27 09:09:34 51°23.642 2°46.374 337.3 11.9 336 27.5
2008-11-27 09:09:39 51°23.656 2°46.36 337.4 12.1 330 28.2
2008-11-27 09:09:44 51°23.671 2°46.35 337.9 11.9 338 28.9
2008-11-27 09:09:49 51°23.686 2°46.338 338.1 12.1 333 29.2
2008-11-27 09:09:54 51°23.701 2°46.326 338 12 333 29.3
2008-11-27 09:09:59 51°23.715 2°46.314 338.8 11.9 333 29.5
2008-11-27 09:10:04 51°23.73 2°46.303 338.1 11.8 335 30.3
2008-11-27 09:10:09 51°23.745 2°46.291 337.6 11.8 333 30.9
2008-11-27 09:10:14 51°23.76 2°46.28 338.2 11.8 334 30.9
2008-11-27 09:10:19 51°23.775 2°46.267 338.7 12 330 30.9
2008-11-27 09:10:24 51°23.79 2°46.257 337.9 11.9 338 30.9
2008-11-27 09:10:29 51°23.805 2°46.244 339.2 12.1 331 30.8
2008-11-27 09:10:34 51°23.82 2°46.234 337.4 11.9 334 30.5
2008-11-27 09:10:39 51°23.835 2°46.222 338.4 11.9 334 29.9
2008-11-27 09:10:44 51°23.849 2°46.211 338.2 11.9 334 29.4
2008-11-27 09:10:49 51°23.864 2°46.199 339 12 332 29.2
2008-11-27 09:10:54 51°23.879 2°46.187 337.2 12 331 28.5
2008-11-27 09:10:59 51°23.894 2°46.176 339.6 12 336 28.4
2008-11-27 09:11:04 51°23.909 2°46.163 337.8 12 331 28.5
2008-11-27 09:11:09 51°23.924 2°46.153 339.1 12 337 28.4
2008-11-27 09:11:14 51°23.939 2°46.14 339.2 12.2 332 28.5
2008-11-27 09:11:19 51°23.955 2°46.129 337.9 12 336 28.2
2008-11-27 09:11:24 51°23.97 2°46.117 338.1 12.1 332 28.1
2008-11-27 09:11:29 51°23.984 2°46.105 337.8 12 333 28.6
2008-11-27 09:11:34 51°23.999 2°46.094 338.8 11.9 336 29.4
2008-11-27 09:11:39 51°24.014 2°46.082 338.9 11.9 334 29.9
2008-11-27 09:11:44 51°24.029 2°46.072 340 11.9 338 30.3
2008-11-27 09:11:49 51°24.044 2°46.061 340.8 12 336 30.3
2008-11-27 09:11:54 51°24.06 2°46.052 341.5 11.9 339 30.2
2008-11-27 09:11:59 51°24.075 2°46.042 341.6 11.7 338 29.8
2008-11-27 09:12:04 51°24.09 2°46.032 343.1 11.8 338 29.1
2008-11-27 09:12:09 51°24.104 2°46.02 341 11.9 335 28.6
2008-11-27 09:12:14 51°24.119 2°46.01 341.8 11.7 340 29.2
2008-11-27 09:12:19 51°24.134 2°46 342.2 11.7 338 29.4
2008-11-27 09:12:24 51°24.149 2°45.991 342.2 11.7 339 29.4
2008-11-27 09:12:29 51°24.165 2°45.981 342.5 11.8 339 29.7
2008-11-27 09:12:34 51°24.18 2°45.971 342 11.8 338 29.7
2008-11-27 09:12:39 51°24.195 2°45.962 343 11.7 339 29.2
2008-11-27 09:12:44 51°24.211 2°45.953 343.3 11.9 340 28.9
2008-11-27 09:12:49 51°24.226 2°45.943 343.1 11.9 338 28.4
2008-11-27 09:12:54 51°24.242 2°45.934 342.5 11.9 339 27.9
2008-11-27 09:12:59 51°24.257 2°45.925 343.3 11.9 340 27.4
2008-11-27 09:13:04 51°24.272 2°45.915 342.7 11.8 338 27
2008-11-27 09:13:09 51°24.287 2°45.906 343.2 11.8 340 26.9
2008-11-27 09:13:14 51°24.302 2°45.896 342.4 11.8 338 27.1
2008-11-27 09:13:19 51°24.318 2°45.887 342.5 11.9 340 27.5
2008-11-27 09:13:24 51°24.333 2°45.877 342.5 11.8 337 27.6
2008-11-27 09:13:30 51°24.352 2°45.867 342.5 11.8 341 26.8
2008-11-27 09:13:34 51°24.364 2°45.858 342.1 11.9 338 27.2
2008-11-27 09:13:39 51°24.379 2°45.85 342.8 11.9 341 27.2
2008-11-27 09:13:44 51°24.394 2°45.84 342.5 11.8 338 27.2
2008-11-27 09:13:49 51°24.41 2°45.832 342.9 11.7 341 26.7
2008-11-27 09:13:54 51°24.425 2°45.822 343.2 11.7 340 26.2
2008-11-27 09:13:59 51°24.441 2°45.813 343.9 11.9 340 26.5
2008-11-27 09:14:04 51°24.456 2°45.804 342.8 11.9 341 26.6
2008-11-27 09:14:09 51°24.472 2°45.794 342.6 11.9 339 26.3
2008-11-27 09:14:14 51°24.487 2°45.786 343.2 11.8 341 26.8
2008-11-27 09:14:19 51°24.502 2°45.775 342 11.8 337 26.1
2008-11-27 09:14:24 51°24.518 2°45.768 343 11.8 343 26.1
2008-11-27 09:14:29 51°24.533 2°45.756 342.1 11.9 337 26
2008-11-27 09:14:34 51°24.549 2°45.747 342.6 11.8 341 25.4
2008-11-27 09:14:39 51°24.564 2°45.737 342.5 11.8 337 26.5
2008-11-27 09:14:44 51°24.579 2°45.73 342.4 11.8 343 26.7
2008-11-27 09:14:49 51°24.594 2°45.719 342.2 11.9 336 26.3
2008-11-27 09:14:54 51°24.609 2°45.71 341.9 11.8 340 26.3
2008-11-27 09:14:59 51°24.625 2°45.7 343.6 12 338 26.5
2008-11-27 09:15:04 51°24.64 2°45.691 342.5 11.7 339 26.6
2008-11-27 09:15:09 51°24.655 2°45.683 342.2 11.6 340 26.4
2008-11-27 09:15:14 51°24.671 2°45.674 342.6 11.7 342 26.3
2008-11-27 09:15:19 51°24.686 2°45.665 343.4 11.8 340 26.2
2008-11-27 09:15:24 51°24.701 2°45.655 342.6 11.8 337 25.7
2008-11-27 09:15:29 51°24.717 2°45.646 341.7 11.8 340 24.9
2008-11-27 09:15:34 51°24.732 2°45.637 341.9 11.7 339 26
2008-11-27 09:15:39 51°24.747 2°45.628 342.4 11.7 341 26.4
2008-11-27 09:15:44 51°24.763 2°45.618 342.8 11.8 338 26.2
2008-11-27 09:15:49 51°24.778 2°45.609 342.2 11.7 340 25.6
2008-11-27 09:15:54 51°24.793 2°45.599 342.1 11.8 338 26.2
2008-11-27 09:15:59 51°24.809 2°45.59 342.1 11.9 340 24.9
2008-11-27 09:16:04 51°24.824 2°45.58 341.1 11.7 338 25.2
2008-11-27 09:16:09 51°24.839 2°45.572 341.9 11.7 341 26
2008-11-27 09:16:14 51°24.855 2°45.561 343.2 11.7 339 26.4
2008-11-27 09:16:19 51°24.869 2°45.551 340.3 11.8 339 26.6
2008-11-27 09:16:24 51°24.885 2°45.542 342.2 11.9 338 26.8
2008-11-27 09:16:29 51°24.9 2°45.533 341.6 11.9 340 26.6
2008-11-27 09:16:34 51°24.916 2°45.524 342.6 11.9 340 26.3
2008-11-27 09:16:39 51°24.932 2°45.514 341.8 11.9 338 26.1
2008-11-27 09:16:44 51°24.947 2°45.505 343.2 11.8 341 24.8
2008-11-27 09:16:49 51°24.961 2°45.494 341.9 11.7 336 24.4
2008-11-27 09:16:54 51°24.977 2°45.486 342.3 11.7 340 26.2
2008-11-27 09:16:59 51°24.992 2°45.474 340.3 11.9 335 25.6
2008-11-27 09:17:04 51°25.007 2°45.464 339.4 12 337 25.9
2008-11-27 09:17:09 51°25.022 2°45.452 338.6 11.9 334 27.1
2008-11-27 09:17:14 51°25.037 2°45.442 338.3 11.9 337 27.1
2008-11-27 09:17:19 51°25.051 2°45.429 337.1 11.9 332 27.4
2008-11-27 09:17:24 51°25.066 2°45.418 337.4 11.9 335 27.3
2008-11-27 09:17:30 51°25.084 2°45.403 336.4 11.9 332 27.2
2008-11-27 09:17:34 51°25.096 2°45.394 336.4 11.9 335 27
2008-11-27 09:17:39 51°25.111 2°45.383 337.3 11.8 334 25.8
2008-11-27 09:17:44 51°25.125 2°45.371 336 11.7 333 24.4
2008-11-27 09:17:49 51°25.14 2°45.36 337.4 11.7 336 25.8
2008-11-27 09:17:54 51°25.155 2°45.348 336.7 11.9 331 26.1
2008-11-27 09:17:59 51°25.17 2°45.337 336.4 11.9 336 26.3
2008-11-27 09:18:04 51°25.184 2°45.325 336.5 11.9 333 25.7
2008-11-27 09:18:09 51°25.199 2°45.313 336.7 11.8 334 25.8
2008-11-27 09:18:14 51°25.214 2°45.3 336 11.9 332 25.3
2008-11-27 09:18:19 51°25.228 2°45.289 336.5 11.7 335 24.4
2008-11-27 09:18:24 51°25.243 2°45.278 337.4 11.9 332 24.3
2008-11-27 09:18:29 51°25.257 2°45.265 334.9 11.8 333 23.7
2008-11-27 09:18:34 51°25.272 2°45.255 337.2 11.9 337 23.7
2008-11-27 09:18:39 51°25.286 2°45.241 336.3 11.9 328 24.1
2008-11-27 09:18:44 51°25.301 2°45.231 336.2 11.7 336 24.7
2008-11-27 09:18:49 51°25.315 2°45.216 335.4 12 328 24.6
2008-11-27 09:18:54 51°25.33 2°45.206 335.5 11.8 335 24.8
2008-11-27 09:18:59 51°25.344 2°45.193 335.5 11.9 331 24.7
2008-11-27 09:19:04 51°25.359 2°45.18 335.4 11.9 332 24.2
2008-11-27 09:19:09 51°25.374 2°45.168 336.7 12.1 332 23.7
2008-11-27 09:19:14 51°25.389 2°45.156 336 12 332 23.4
2008-11-27 09:19:19 51°25.403 2°45.144 336 11.9 332 23.9
2008-11-27 09:19:24 51°25.418 2°45.132 336.2 11.9 333 23.7
2008-11-27 09:19:29 51°25.433 2°45.121 336.7 11.8 334 24
2008-11-27 09:19:34 51°25.447 2°45.108 336 11.9 331 24.2
2008-11-27 09:19:39 51°25.462 2°45.097 336.9 11.9 336 23.3
2008-11-27 09:19:44 51°25.476 2°45.084 336.1 12 329 23.8
2008-11-27 09:19:50 51°25.494 2°45.071 336 11.7 336 24.9
2008-11-27 09:19:54 51°25.505 2°45.059 335.4 12 328 25.3
2008-11-27 09:19:59 51°25.52 2°45.047 334.5 11.9 331 25.3
2008-11-27 09:20:04 51°25.534 2°45.036 334.9 11.8 334 25.5
2008-11-27 09:20:09 51°25.549 2°45.022 334.2 11.9 331 25.4
2008-11-27 09:20:14 51°25.563 2°45.01 335 12 331 25.4
2008-11-27 09:20:19 51°25.577 2°44.997 335.1 11.9 332 25.3
2008-11-27 09:20:24 51°25.592 2°44.985 335.8 12 332 25
2008-11-27 09:20:29 51°25.606 2°44.972 335.2 12 331 24.6
2008-11-27 09:20:34 51°25.621 2°44.961 336.2 11.9 334 24.6
2008-11-27 09:20:39 51°25.635 2°44.946 334.4 12 327 23.8
2008-11-27 09:20:44 51°25.65 2°44.936 335.3 11.8 336 24.2
2008-11-27 09:20:49 51°25.664 2°44.921 335.4 11.8 327 23.8
2008-11-27 09:20:54 51°25.678 2°44.91 333 11.6 333 22.4
2008-11-27 09:20:59 51°25.693 2°44.898 337.6 11.9 331 22.4
2008-11-27 09:21:04 51°25.707 2°44.885 335.9 11.8 331 22.6
2008-11-27 09:21:09 51°25.722 2°44.873 335 11.8 332 24.3
2008-11-27 09:21:14 51°25.737 2°44.861 336.9 11.9 332 25.1
2008-11-27 09:21:19 51°25.751 2°44.847 335 11.8 329 25
2008-11-27 09:21:24 51°25.766 2°44.837 336.3 11.8 335 24.4
2008-11-27 09:21:29 51°25.78 2°44.823 335.5 11.9 329 23.4
2008-11-27 09:21:34 51°25.795 2°44.811 336 11.7 333 23.6
2008-11-27 09:21:39 51°25.809 2°44.798 334.3 11.9 330 23.6
2008-11-27 09:21:44 51°25.823 2°44.787 336.2 11.9 335 23.6
2008-11-27 09:21:49 51°25.838 2°44.773 337.5 12 330 23.8
2008-11-27 09:21:54 51°25.852 2°44.762 336.2 11.8 333 23.8
2008-11-27 09:21:59 51°25.867 2°44.751 338 11.9 333 24.7
2008-11-27 09:22:04 51°25.882 2°44.738 337.4 11.8 332 24.7
2008-11-27 09:22:10 51°25.899 2°44.724 337.6 11.8 333 24
2008-11-27 09:22:14 51°25.911 2°44.715 338.1 11.7 333 23.9
2008-11-27 09:22:19 51°25.925 2°44.704 338.2 11.7 335 24
2008-11-27 09:22:24 51°25.94 2°44.691 337.8 11.8 331 23.9
2008-11-27 09:22:30 51°25.958 2°44.678 337.8 11.8 335 25
2008-11-27 09:22:34 51°25.97 2°44.668 338.1 11.9 332 25.4
2008-11-27 09:22:39 51°25.984 2°44.655 336.7 11.8 332 25.5
2008-11-27 09:22:44 51°25.999 2°44.645 338.3 11.8 336 26.3
2008-11-27 09:22:49 51°26.013 2°44.633 338.5 11.7 334 26.9
2008-11-27 09:22:54 51°26.028 2°44.623 338.9 11.8 336 26.1
2008-11-27 09:22:59 51°26.043 2°44.61 339.4 12 331 26.5
2008-11-27 09:23:04 51°26.058 2°44.6 338.9 11.8 338 26.9
2008-11-27 09:23:09 51°26.073 2°44.586 338.9 12 330 27.9
2008-11-27 09:23:14 51°26.088 2°44.577 338.9 11.8 337 28.1
2008-11-27 09:23:19 51°26.103 2°44.564 338.1 12 332 28.4
2008-11-27 09:23:24 51°26.118 2°44.554 338.5 11.9 335 28.7
2008-11-27 09:23:29 51°26.133 2°44.541 338 11.9 332 28.3
2008-11-27 09:23:34 51°26.147 2°44.531 338.3 11.8 336 28.4
2008-11-27 09:23:39 51°26.162 2°44.518 338.5 11.8 331 28.8
2008-11-27 09:23:44 51°26.177 2°44.509 338.6 11.7 339 28.9
2008-11-27 09:23:49 51°26.191 2°44.497 339.6 11.8 334 28.9
2008-11-27 09:23:54 51°26.206 2°44.486 339.5 11.8 334 27.7